createdAt,value
2018-02-06T00:01:54.732Z,72.60
2018-02-06T00:05:57.243Z,72.20
2018-02-06T00:10:00.571Z,72.10
2018-02-06T00:14:03.098Z,72.00
2018-02-06T00:18:05.646Z,72.30
2018-02-06T00:22:08.259Z,72.50
2018-02-06T00:26:10.806Z,72.60
2018-02-06T00:30:13.309Z,72.80
2018-02-06T00:34:15.838Z,73.30
2018-02-06T00:38:19.090Z,74.60
2018-02-06T00:42:21.616Z,75.60
2018-02-06T00:46:24.121Z,76.90
2018-02-06T00:50:26.654Z,77.50
2018-02-06T00:54:29.155Z,77.60
2018-02-06T00:58:31.680Z,77.50
2018-02-06T01:02:34.190Z,77.60
2018-02-06T01:06:36.792Z,78.10
2018-02-06T01:10:39.316Z,78.70
2018-02-06T01:14:41.852Z,79.40
2018-02-06T01:18:44.375Z,79.70
2018-02-06T01:22:46.910Z,79.80
2018-02-06T01:26:50.209Z,79.10
2018-02-06T01:30:53.516Z,78.70
2018-02-06T01:34:56.823Z,78.20
2018-02-06T01:39:00.133Z,78.20
2018-02-06T01:43:02.663Z,78.20
2018-02-06T01:47:05.180Z,78.10
2018-02-06T01:51:07.700Z,78.50
2018-02-06T01:55:10.227Z,79.00
2018-02-06T01:59:12.957Z,78.60
2018-02-06T02:03:16.261Z,78.00
2018-02-06T02:07:19.562Z,78.50
2018-02-06T02:11:22.849Z,78.90
2018-02-06T02:15:25.385Z,78.90
2018-02-06T02:19:27.894Z,79.30
2018-02-06T02:23:30.427Z,80.00
2018-02-06T02:27:33.705Z,80.80
2018-02-06T02:31:36.248Z,80.80
2018-02-06T02:35:38.761Z,80.80
2018-02-06T02:39:41.326Z,80.30
2018-02-06T04:41:07.489Z,77.90
2018-02-06T04:45:10.785Z,76.00
2018-02-06T04:49:13.325Z,76.50
2018-02-06T04:53:15.837Z,75.50
2018-02-06T04:57:18.368Z,74.60
2018-02-06T05:01:21.657Z,77.10
2018-02-06T05:05:24.977Z,77.10
2018-02-06T05:09:28.262Z,76.90
2018-02-06T05:13:30.816Z,76.80
2018-02-06T05:17:33.321Z,77.10
2018-02-06T05:21:35.848Z,77.10
2018-02-06T05:25:38.377Z,77.10
2018-02-06T05:29:40.921Z,76.70
2018-02-06T05:33:43.444Z,76.70
2018-02-06T05:37:45.970Z,77.20
2018-02-06T05:41:49.236Z,78.20
2018-02-06T05:45:51.774Z,78.20
2018-02-06T05:49:54.294Z,78.20
2018-02-06T05:53:56.831Z,78.30
2018-02-06T05:58:00.111Z,78.20
2018-02-06T06:02:02.644Z,78.20
2018-02-06T06:06:05.152Z,78.20
2018-02-06T06:14:16.618Z,78.30
2018-02-06T06:18:19.921Z,78.00
2018-02-06T06:22:22.448Z,77.90
2018-02-06T06:26:25.009Z,77.90
2018-02-06T06:30:28.361Z,76.70
2018-02-06T06:34:30.875Z,76.70
2018-02-06T06:38:33.423Z,76.70
2018-02-06T06:42:35.941Z,76.50
2018-02-06T06:46:40.039Z,76.40
2018-02-06T06:50:42.557Z,76.30
2018-02-06T06:54:45.116Z,76.70
2018-02-06T06:58:47.632Z,77.20
2018-02-06T07:02:50.178Z,77.80
2018-02-06T07:06:52.717Z,77.90
2018-02-06T07:10:56.022Z,78.00
2018-02-06T07:14:59.316Z,77.70
2018-02-06T07:19:01.859Z,77.70
2018-02-06T07:23:04.364Z,77.40
2018-02-06T07:27:07.036Z,77.50
2018-02-06T07:31:09.552Z,77.20
2018-02-06T07:35:12.089Z,77.40
2018-02-06T07:39:14.600Z,77.80
2018-02-06T07:43:17.124Z,78.20
2018-02-06T07:47:20.629Z,78.20
2018-02-06T07:51:23.933Z,78.60
2018-02-06T07:55:27.206Z,77.80
2018-02-06T07:59:29.746Z,77.40
2018-02-06T08:03:32.266Z,77.30
2018-02-06T08:07:34.810Z,76.60
2018-02-06T08:11:37.389Z,76.10
2018-02-06T08:15:40.692Z,75.60
2018-02-06T08:19:43.982Z,75.00
2018-02-06T08:23:46.517Z,74.80
2018-02-06T08:27:49.025Z,75.20
2018-02-06T08:31:51.608Z,74.70
2018-02-06T08:35:54.897Z,74.70
2018-02-06T08:39:57.435Z,74.80
2018-02-06T08:44:01.342Z,76.60
2018-02-06T08:48:03.885Z,76.10
2018-02-06T08:52:06.394Z,76.50
2018-02-06T08:56:08.926Z,75.80
2018-02-06T09:00:12.196Z,63.00
2018-02-06T09:04:14.744Z,62.90
2018-02-06T09:08:17.327Z,56.90
2018-02-06T09:12:19.875Z,53.20
2018-02-06T09:16:23.153Z,48.70
2018-02-06T09:20:25.683Z,48.70
2018-02-06T09:24:28.202Z,47.70
2018-02-06T09:28:30.751Z,46.70
2018-02-06T09:32:34.026Z,45.60
2018-02-06T09:36:36.569Z,45.60
2018-02-06T09:40:39.180Z,47.00
2018-02-06T09:44:41.709Z,46.70
2018-02-06T09:48:45.008Z,48.10
2018-02-06T09:52:48.286Z,48.10
2018-02-06T09:56:50.813Z,48.00
2018-02-06T10:00:53.461Z,47.60
2018-02-06T10:04:55.998Z,47.50
2018-02-06T10:08:58.510Z,48.10
2018-02-06T10:13:01.066Z,48.70
2018-02-06T10:17:03.568Z,48.70
2018-02-06T10:21:06.101Z,49.20
2018-02-06T10:25:08.689Z,49.90
2018-02-06T10:29:11.234Z,50.40
2018-02-06T10:33:13.731Z,49.50
2018-02-06T10:37:16.300Z,47.30
2018-02-06T10:41:18.797Z,48.40
2018-02-06T10:45:21.393Z,47.90
2018-02-06T10:49:24.117Z,46.10
2018-02-06T10:53:27.629Z,46.70
2018-02-06T10:57:30.957Z,47.30
2018-02-06T11:01:33.611Z,47.20
2018-02-06T11:05:36.153Z,48.20
2018-02-06T11:09:38.779Z,49.50
2018-02-06T11:13:41.341Z,49.70
2018-02-06T11:17:43.868Z,50.50
2018-02-06T11:21:47.141Z,48.70
2018-02-06T11:25:49.670Z,48.70
2018-02-06T11:29:53.428Z,49.80
2018-02-06T11:33:55.968Z,49.80
2018-02-06T11:37:59.240Z,47.10
2018-02-06T11:42:01.831Z,47.10
2018-02-06T11:46:04.352Z,48.40
2018-02-06T11:50:06.892Z,49.00
2018-02-06T11:54:09.440Z,49.40
2018-02-06T11:58:11.962Z,49.40
2018-02-06T12:02:14.483Z,51.70
2018-02-06T12:06:17.775Z,52.20
2018-02-06T12:10:21.035Z,52.80
2018-02-06T12:14:23.557Z,53.30
2018-02-06T12:18:26.080Z,52.70
2018-02-06T12:22:28.616Z,52.30
2018-02-06T12:26:31.141Z,50.00
2018-02-06T12:30:33.673Z,52.20
2018-02-06T12:34:36.164Z,51.50
2018-02-06T12:38:38.708Z,51.70
2018-02-06T12:42:41.204Z,53.00
2018-02-06T12:46:43.723Z,52.60
2018-02-06T12:50:46.216Z,52.70
2018-02-06T12:54:48.753Z,51.30
2018-02-06T13:03:00.111Z,50.80
2018-02-06T13:07:02.603Z,50.80
2018-02-06T13:11:06.818Z,51.40
2018-02-06T13:15:09.412Z,51.40
2018-02-06T13:19:12.116Z,51.20
2018-02-06T13:23:14.796Z,51.90
2018-02-06T13:27:17.407Z,53.50
2018-02-06T13:31:20.735Z,54.20
2018-02-06T13:35:23.903Z,54.20
2018-02-06T13:39:26.428Z,54.20
2018-02-06T13:43:28.993Z,53.80
2018-02-06T13:47:31.546Z,53.90
2018-02-06T13:51:34.175Z,54.50
2018-02-06T13:55:36.779Z,54.00
2018-02-06T13:59:39.400Z,54.20
2018-02-06T14:03:41.977Z,59.00
2018-02-06T14:07:44.540Z,59.90
2018-02-06T14:11:47.117Z,54.50
2018-02-06T14:15:49.661Z,54.10
2018-02-06T14:19:52.177Z,54.50
2018-02-06T14:23:55.483Z,55.30
2018-02-06T14:27:58.756Z,55.80
2018-02-06T14:32:01.282Z,55.80
2018-02-06T14:36:03.794Z,55.60
2018-02-06T14:40:06.350Z,56.10
2018-02-06T14:44:09.320Z,56.10
2018-02-06T14:48:13.136Z,56.40
2018-02-06T14:52:15.779Z,56.50
2018-02-06T14:56:18.305Z,57.30
2018-02-06T15:00:20.827Z,56.60
2018-02-06T15:04:23.344Z,56.70
2018-02-06T15:08:25.856Z,57.20
2018-02-06T15:12:28.383Z,57.30
2018-02-06T15:16:30.885Z,56.60
2018-02-06T15:20:33.433Z,57.00
2018-02-06T15:24:36.717Z,56.60
2018-02-06T15:28:39.264Z,56.60
2018-02-06T15:32:41.865Z,57.30
2018-02-06T15:36:44.458Z,56.60
2018-02-06T15:40:46.964Z,56.30
2018-02-06T15:44:49.492Z,56.60
2018-02-06T15:48:52.060Z,56.10
2018-02-06T15:52:55.358Z,56.60
2018-02-06T15:56:58.627Z,57.10
2018-02-06T16:01:07.301Z,56.60
2018-02-06T16:05:10.560Z,57.20
2018-02-06T16:09:13.071Z,57.20
2018-02-06T16:13:15.609Z,57.40
2018-02-06T16:17:18.461Z,57.00
2018-02-06T16:21:21.785Z,58.30
2018-02-06T16:25:24.312Z,57.60
2018-02-06T16:29:26.925Z,57.20
2018-02-06T16:33:29.492Z,57.90
2018-02-06T16:37:32.185Z,57.90
2018-02-06T16:41:34.724Z,57.60
2018-02-06T16:45:37.305Z,57.80
2018-02-06T16:49:40.645Z,58.60
2018-02-06T16:53:43.157Z,58.60
2018-02-06T16:57:45.707Z,59.00
2018-02-06T17:01:48.227Z,59.40
2018-02-06T17:05:50.761Z,60.00
2018-02-06T17:09:53.277Z,60.90
2018-02-06T17:13:55.919Z,61.60
2018-02-06T17:17:59.218Z,62.40
2018-02-06T17:22:02.523Z,63.50
2018-02-06T17:26:05.822Z,64.40
2018-02-06T17:30:09.136Z,64.50
2018-02-06T17:34:12.428Z,65.20
2018-02-06T17:38:14.959Z,65.20
2018-02-06T17:42:17.498Z,65.70
2018-02-06T17:46:20.038Z,66.00
2018-02-06T17:50:22.571Z,66.50
2018-02-06T17:54:25.104Z,66.20
2018-02-06T17:58:27.657Z,66.00
2018-02-06T18:02:30.267Z,76.10
2018-02-06T18:06:32.768Z,87.90
2018-02-06T18:19:51.434Z,61.90
2018-02-06T18:23:56.954Z,63.40
2018-02-06T18:28:02.654Z,64.60
2018-02-06T18:32:05.240Z,65.70
2018-02-06T18:36:07.790Z,66.60
2018-02-06T18:40:13.272Z,67.50
2018-02-06T18:44:17.148Z,68.00
2018-02-06T18:48:19.723Z,68.70
2018-02-06T18:52:23.062Z,68.30
2018-02-06T19:09:29.815Z,67.60
2018-02-06T19:13:32.556Z,66.90
2018-02-06T19:17:36.166Z,66.60
2018-02-06T19:21:42.895Z,66.30
2018-02-06T19:30:06.153Z,67.00
2018-02-06T19:34:08.900Z,67.00
2018-02-06T19:38:11.680Z,66.30
2018-02-06T19:42:14.420Z,66.20
2018-02-06T19:46:17.734Z,64.80
2018-02-06T19:50:21.050Z,64.90
2018-02-06T19:54:24.362Z,64.60
2018-02-06T19:58:26.930Z,64.60
2018-02-06T20:02:30.258Z,64.00
2018-02-06T20:06:32.865Z,63.90
2018-02-06T20:10:35.391Z,63.40
2018-02-06T20:14:38.218Z,63.20
2018-02-06T20:18:40.750Z,62.70
2018-02-06T20:22:43.321Z,62.30
2018-02-06T20:26:45.855Z,63.20
2018-02-06T20:30:49.162Z,63.00
2018-02-06T20:34:52.438Z,61.90
2018-02-06T20:38:54.979Z,61.80
2018-02-06T20:42:57.531Z,62.20
2018-02-06T20:47:01.004Z,62.00
2018-02-06T20:51:03.566Z,61.90
2018-02-06T20:55:06.160Z,61.60
2018-02-06T20:59:08.686Z,62.00
2018-02-06T21:03:11.267Z,62.00
2018-02-06T21:07:13.790Z,62.00
2018-02-06T21:11:17.086Z,62.60
2018-02-06T21:15:20.370Z,61.80
2018-02-06T21:19:44.049Z,61.80
2018-02-06T21:24:06.322Z,61.80
2018-02-06T21:28:23.204Z,62.00
2018-02-06T21:32:28.676Z,61.90
2018-02-06T21:36:43.881Z,62.40
2018-02-06T21:40:48.093Z,61.90
2018-02-06T21:44:50.625Z,61.90
2018-02-06T21:49:05.565Z,61.90
2018-02-06T21:53:28.858Z,62.10
2018-02-06T21:57:37.206Z,62.40
2018-02-06T22:01:52.766Z,62.60
2018-02-06T22:06:02.874Z,62.60
2018-02-06T22:10:05.407Z,62.70
2018-02-06T22:14:08.691Z,63.00
2018-02-06T22:18:11.232Z,63.00
2018-02-06T22:22:13.756Z,62.90
2018-02-06T22:26:16.331Z,63.00
2018-02-06T22:45:31.602Z,64.30
2018-02-06T22:49:34.220Z,64.10
2018-02-06T22:53:37.504Z,64.40
2018-02-06T22:57:40.050Z,64.70
2018-02-06T23:01:42.641Z,65.10
2018-02-06T23:05:45.155Z,65.20
2018-02-06T23:09:47.731Z,65.80
2018-02-06T23:13:50.315Z,66.20
2018-02-06T23:17:52.866Z,67.10
2018-02-06T23:21:56.158Z,68.30
2018-02-06T23:26:00.183Z,68.80
2018-02-06T23:30:03.476Z,69.10
2018-02-06T23:34:06.025Z,69.10
2018-02-06T23:38:11.677Z,69.30
2018-02-06T23:42:14.252Z,69.20
2018-02-06T23:46:27.061Z,69.70
2018-02-06T23:56:53.679Z,69.70
